Time;durP1;ratioP1;P1;durP2;ratioP2;P2;SDS_P1;SDS_P2;PMS_P1;PMS_P2;Temp;Humidity;BMP_temperature;BMP_pressure;BME280_temperature;BME280_humidity;BME280_pressure;Samples;Min_cycle;Max_cycle;Signal;HPM_P1;HPM_P2
2021/08/08 16:13:28;;;;;;;;;2.00;2.00;;;;;23.65;41.05;100505.06;6306353;22;45142;-81
2021/08/08 16:16:08;;;;;;;;;1.75;1.75;;;;;23.68;40.44;100505.78;6315702;22;45236;-79
2021/08/08 16:18:34;;;;;;;;;2.00;2.00;;;;;23.75;40.52;100503.69;6316001;22;45317;-85
2021/08/08 16:21:18;;;;;;;;;;;;;;;;;;;;;
2021/08/08 16:23:44;;;;;;;;;2.25;2.00;;;;;23.73;40.99;100502.91;6314336;22;71506;-78
2021/08/08 16:26:09;;;;;;;;;4.25;4.00;;;;;23.83;40.19;100505.97;6288113;22;45364;-87
2021/08/08 16:28:35;;;;;;;;;2.00;1.00;;;;;23.81;40.06;100500.72;6314379;22;45208;-85
2021/08/08 16:31:12;;;;;;;;;;;;;;;;;;;;;
2021/08/08 16:33:47;;;;;;;;;1.00;1.00;;;;;23.82;39.93;100485.59;6340314;22;72661;-81
2021/08/08 16:36:30;;;;;;;;;2.00;2.00;;;;;23.85;39.82;100501.41;6315828;22;45243;-83
2021/08/08 16:38:56;;;;;;;;;2.00;2.00;;;;;23.93;39.20;100499.25;6313846;22;45498;-88
2021/08/08 16:41:22;;;;;;;;;1.00;1.00;;;;;23.90;39.23;100508.25;6314310;22;47199;-83
2021/08/08 16:43:50;;;;;;;;;1.75;1.75;;;;;23.99;38.83;100522.06;6288208;22;45591;-85
2021/08/08 16:46:18;;;;;;;;;2.25;2.25;;;;;23.90;39.38;100508.25;6314208;22;45426;-84
2021/08/08 16:48:43;;;;;;;;;1.25;1.25;;;;;23.94;39.14;100506.28;6313733;22;45443;-84
2021/08/08 16:51:09;;;;;;;;;5.00;2.00;;;;;23.95;40.48;100508.88;6312898;22;54911;-83
2021/08/08 16:53:34;;;;;;;;;1.00;1.00;;;;;23.93;39.72;100502.75;6313433;22;50230;-79
2021/08/08 16:56:00;;;;;;;;;2.75;2.75;;;;;23.91;39.03;100495.78;6287323;22;45381;-83
2021/08/08 16:58:25;;;;;;;;;4.50;3.00;;;;;23.93;38.79;100504.56;6287592;22;45324;-80
2021/08/08 17:00:53;;;;;;;;;2.00;1.00;;;;;23.93;39.26;100510.75;6286932;22;58272;-86
2021/08/08 17:03:31;;;;;;;;;3.75;1.00;;;;;23.92;39.58;100505.50;6287713;22;45191;-85
2021/08/08 17:05:56;;;;;;;;;4.50;3.50;;;;;23.91;39.46;100512.66;6289634;22;45341;-84
2021/08/08 17:08:22;;;;;;;;;2.00;2.00;;;;;23.87;39.16;100510.19;6313811;22;45266;-83
2021/08/08 17:11:11;;;;;;;;;2.25;1.25;;;;;23.84;39.52;100500.56;6261229;22;46405;-84
2021/08/08 17:13:36;;;;;;;;;5.00;3.00;;;;;23.85;39.49;100501.41;6218722;22;45490;-86
2021/08/08 17:16:02;;;;;;;;;3.00;3.00;;;;;23.85;39.70;100496.94;6194803;22;45205;-87
2021/08/08 17:18:31;;;;;;;;;2.25;2.25;;;;;23.86;40.24;100509.34;6220950;22;45957;-87
2021/08/08 17:20:57;;;;;;;;;2.50;1.50;;;;;23.81;39.95;100499.88;6219340;22;45390;-85
2021/08/08 17:23:23;;;;;;;;;3.00;3.00;;;;;23.87;40.22;100507.53;6219179;22;45725;-85
2021/08/08 17:25:57;;;;;;;;;2.00;2.00;;;;;23.82;40.82;100501.59;6244808;22;45263;-83
2021/08/08 17:28:23;;;;;;;;;4.00;2.00;;;;;23.91;40.49;100517.97;6219709;22;45378;-83
2021/08/08 17:30:48;;;;;;;;;4.00;2.00;;;;;23.95;40.95;100529.34;6220273;22;45960;-84
2021/08/08 17:33:14;;;;;;;;;3.75;2.25;;;;;23.96;40.37;100526.59;6219232;22;45464;-80
2021/08/08 17:35:39;;;;;;;;;2.00;2.00;;;;;23.93;40.08;100533.91;6218179;22;45246;-81
2021/08/08 17:38:07;;;;;;;;;2.00;2.00;;;;;23.88;40.57;100531.44;6218210;22;45246;-85
2021/08/08 17:40:33;;;;;;;;;2.25;1.50;;;;;23.95;40.23;100542.66;6244871;22;45304;-85
2021/08/08 17:42:58;;;;;;;;;4.00;2.25;;;;;23.86;39.86;100530.66;6220412;22;45227;-87
2021/08/08 17:45:29;;;;;;;;;2.00;2.00;;;;;23.89;39.68;100543.84;6279985;22;45322;-77
2021/08/08 17:47:54;;;;;;;;;2.50;1.00;;;;;23.85;39.96;100538.72;6307809;22;45198;-78
2021/08/08 17:50:20;;;;;;;;;3.25;2.00;;;;;23.84;39.78;100547.66;6255963;22;46963;-78
2021/08/08 17:52:45;;;;;;;;;3.00;2.00;;;;;23.83;39.97;100544.16;6306938;22;45224;-77
2021/08/08 17:55:11;;;;;;;;;2.00;1.25;;;;;23.90;39.32;100560.72;6254727;22;51839;-77
2021/08/08 17:57:36;;;;;;;;;2.00;2.00;;;;;23.90;39.62;100558.91;6307590;22;45566;-76
2021/08/08 18:00:03;;;;;;;;;1.00;1.00;;;;;23.85;39.55;100555.59;6255699;22;47702;-77
2021/08/08 18:02:29;;;;;;;;;3.25;1.00;;;;;23.87;39.27;100564.38;6256656;22;45211;-78
2021/08/08 18:04:54;;;;;;;;;1.50;1.50;;;;;23.81;39.74;100559.34;6256058;22;45346;-77
2021/08/08 18:07:20;;;;;;;;;1.00;1.00;;;;;23.87;39.18;100568.84;6282229;22;47343;-79
2021/08/08 18:09:45;;;;;;;;;2.25;2.25;;;;;23.82;38.83;100560.22;6281309;22;47162;-81
2021/08/08 18:12:13;;;;;;;;;2.00;2.00;;;;;23.81;39.39;100571.81;6268907;22;45450;-84
2021/08/08 18:14:41;;;;;;;;;0.25;0.25;;;;;23.78;39.21;100566.63;6260681;22;45290;-83
2021/08/08 18:17:16;;;;;;;;;1.25;1.00;;;;;23.76;39.22;100565.84;6288205;22;45837;-82
2021/08/08 18:19:41;;;;;;;;;2.50;1.00;;;;;23.79;39.58;100582.53;6286557;22;47189;-83
2021/08/08 18:22:09;;;;;;;;;1.00;1.00;;;;;23.75;38.98;100567.63;6313541;22;45293;-86
2021/08/08 18:24:51;;;;;;;;;2.50;2.00;;;;;23.70;39.17;100559.00;6286257;22;45363;-86
2021/08/08 18:27:17;;;;;;;;;1.00;1.00;;;;;23.71;39.59;100567.84;6290308;22;45529;-84
2021/08/08 18:29:45;;;;;;;;;2.50;2.00;;;;;23.80;39.91;100581.59;6286650;22;46823;-83
2021/08/08 18:32:30;;;;;;;;;;;;;;;;;;;;;
2021/08/08 18:35:06;;;;;;;;;4.50;1.25;;;;;23.76;39.61;100579.16;6313983;22;68254;-84
2021/08/08 18:37:41;;;;;;;;;5.00;2.00;;;;;23.74;39.94;100573.03;6312211;22;45376;-84
2021/08/08 18:42:56;;;;;;;;;4.25;3.00;;;;;23.75;39.80;100586.28;6295935;22;45331;-84
2021/08/08 18:45:29;;;;;;;;;2.75;1.75;;;;;23.75;40.33;100585.44;6313528;22;45134;-86
2021/08/08 18:47:57;;;;;;;;;2.25;1.50;;;;;23.79;40.13;100589.66;6294987;22;45349;-85
2021/08/08 18:57:13;;;;;;;;;2.50;2.50;;;;;23.72;40.18;100598.88;6093246;23;45240;-87
2021/08/08 18:59:38;;;;;;;;;2.75;1.25;;;;;23.65;40.64;100591.19;6164891;23;45511;-84
2021/08/08 19:02:09;;;;;;;;;5.00;3.00;;;;;23.74;40.85;100605.03;6135106;23;47032;-82
2021/08/08 19:04:47;;;;;;;;;4.00;2.50;;;;;23.67;41.45;100596.44;6142148;23;44675;-83
2021/08/08 19:07:22;;;;;;;;;4.00;2.75;;;;;23.72;41.49;100602.44;6148678;23;45564;-88
2021/08/08 19:09:47;;;;;;;;;3.50;2.25;;;;;23.71;41.81;100605.16;6138633;23;45242;-87
2021/08/08 19:12:15;;;;;;;;;2.25;2.25;;;;;23.67;42.64;100588.47;6273728;22;48350;-85
2021/08/08 19:14:52;;;;;;;;;3.50;2.75;;;;;23.79;42.17;100605.66;6262129;22;45507;-89
2021/08/08 19:17:48;;;;;;;;;3.50;2.00;;;;;23.83;42.37;100613.44;6265779;22;45373;-86
2021/08/08 19:20:32;;;;;;;;;1.50;1.50;;;;;23.80;42.24;100608.25;6219953;22;45368;-87
2021/08/08 19:23:06;;;;;;;;;3.00;1.00;;;;;23.87;41.68;100619.47;6314463;22;47741;-91
2021/08/08 19:25:37;;;;;;;;;3.00;1.00;;;;;23.81;42.43;100610.00;6313983;22;45974;-87
2021/08/08 19:28:05;;;;;;;;;2.00;1.00;;;;;23.87;41.43;100619.47;6290661;22;45159;-86
2021/08/08 19:30:39;;;;;;;;;3.00;3.00;;;;;23.82;42.01;100614.38;6288486;22;45367;-89
2021/08/08 19:33:29;;;;;;;;;2.00;1.25;;;;;23.88;41.65;100624.72;6257390;22;46709;-85
2021/08/08 19:35:56;;;;;;;;;3.00;2.00;;;;;23.82;42.15;100617.06;6296757;22;45399;-89
2021/08/08 19:38:22;;;;;;;;;1.00;1.00;;;;;23.83;41.26;100629.44;6288460;22;45333;-86
2021/08/08 19:40:48;;;;;;;;;0.50;0.50;;;;;23.84;41.99;100641.81;6289045;22;45414;-89
2021/08/08 19:43:13;;;;;;;;;2.25;2.25;;;;;23.89;41.79;100660.25;6316369;22;45458;-85
2021/08/08 19:45:42;;;;;;;;;2.00;1.00;;;;;23.83;41.82;100657.88;6327729;22;44575;-83
2021/08/08 19:48:10;;;;;;;;;2.50;2.50;;;;;23.75;41.84;100655.59;6301304;22;45392;-81
2021/08/08 19:50:36;;;;;;;;;1.00;1.00;;;;;23.79;42.08;100667.81;6315161;22;45219;-83
2021/08/08 19:53:01;;;;;;;;;1.00;1.00;;;;;23.85;42.06;100683.53;6289733;22;48004;-83
2021/08/08 19:55:27;;;;;;;;;3.50;1.00;;;;;23.81;42.49;100681.09;6343537;22;45224;-84
2021/08/08 19:57:54;;;;;;;;;2.75;2.75;;;;;23.74;42.74;100672.50;6315308;22;45444;-84
2021/08/08 20:00:22;;;;;;;;;3.25;2.25;;;;;23.76;43.11;100675.09;6342040;22;45248;-84
2021/08/08 20:02:47;;;;;;;;;3.25;2.00;;;;;23.77;43.28;100679.50;6313869;22;47010;-83
2021/08/08 20:05:13;;;;;;;;;2.00;2.00;;;;;23.78;43.42;100681.22;6314325;22;45341;-86
2021/08/08 20:07:38;;;;;;;;;3.00;3.00;;;;;23.83;43.53;100687.22;6287474;22;45250;-86
2021/08/08 20:10:04;;;;;;;;;1.00;1.00;;;;;23.83;44.10;100687.22;6287185;22;45608;-82
2021/08/08 20:12:30;;;;;;;;;3.50;3.00;;;;;23.85;44.06;100694.19;6287081;22;47061;-84
2021/08/08 20:14:55;;;;;;;;;1.75;1.75;;;;;23.72;43.97;100679.72;6262048;22;48493;-85
2021/08/08 20:17:21;;;;;;;;;1.50;1.50;;;;;23.66;44.15;100682.66;6314465;22;45694;-85
2021/08/08 20:19:46;;;;;;;;;2.00;1.00;;;;;23.65;44.46;100689.78;6314153;22;45465;-80
2021/08/08 20:22:12;;;;;;;;;5.00;2.00;;;;;23.70;45.09;100694.88;6287224;22;66814;-82
2021/08/08 20:24:37;;;;;;;;;3.00;3.00;;;;;23.68;45.22;100691.44;6261906;22;45550;-80
2021/08/08 20:27:03;;;;;;;;;3.00;1.50;;;;;23.67;45.70;100671.06;6342276;22;45167;-83
2021/08/08 20:30:30;;;;;;;;;3.00;1.00;;;;;23.77;45.62;100690.16;6313706;22;45460;-86
2021/08/08 20:32:55;;;;;;;;;2.00;2.00;;;;;23.75;46.09;100686.69;6169539;22;46279;-82
2021/08/08 20:35:24;;;;;;;;;2.00;2.00;;;;;23.73;47.17;100683.25;6313745;22;45609;-84
2021/08/08 20:37:53;;;;;;;;;4.00;4.00;;;;;23.86;47.35;100705.72;6262331;22;45112;-81
2021/08/08 20:40:25;;;;;;;;;2.75;2.75;;;;;23.74;47.34;100690.31;6314013;22;45258;-80
2021/08/08 20:42:53;;;;;;;;;3.25;3.25;;;;;23.76;47.33;100688.44;6262145;22;47237;-82
2021/08/08 20:45:35;;;;;;;;;;;;;;;;;;;;;
2021/08/08 20:48:24;;;;;;;;;4.50;4.00;;;;;23.65;47.56;100689.78;6316394;22;68877;-87
2021/08/08 20:51:13;;;;;;;;;3.00;3.00;;;;;23.76;46.20;100699.94;6295617;22;45311;-85
2021/08/08 20:53:51;;;;;;;;;4.25;4.25;;;;;23.69;47.34;100701.16;6316072;22;45437;-87
2021/08/08 20:56:19;;;;;;;;;4.00;4.00;;;;;23.72;46.44;100706.38;6264271;22;45497;-85
2021/08/08 20:58:47;;;;;;;;;5.00;4.25;;;;;23.69;46.40;100710.00;6288287;22;45290;-83
2021/08/08 21:01:36;;;;;;;;;3.75;3.00;;;;;23.73;46.47;100720.56;6284977;22;45480;-83
2021/08/08 21:05:04;;;;;;;;;4.00;3.00;;;;;23.68;45.92;100720.75;6317483;22;45565;-84
2021/08/08 21:07:37;;;;;;;;;3.00;2.00;;;;;23.65;45.69;100713.78;6334184;22;45160;-82
2021/08/08 21:10:36;;;;;;;;;;;;;;;;;;;;;
2021/08/08 21:13:11;;;;;;;;;3.00;2.50;;;;;23.71;45.83;100733.06;6313665;22;72106;-83
2021/08/08 21:16:05;;;;;;;;;;;;;;;;;;;;;
2021/08/08 21:19:02;;;;;;;;;2.00;2.00;;;;;23.77;46.37;100738.13;6291841;22;72940;-88
2021/08/08 21:21:50;;;;;;;;;2.75;2.75;;;;;23.67;46.29;100727.88;6310761;22;45346;-86
2021/08/08 21:27:46;;;;;;;;;3.00;1.50;;;;;23.65;47.08;100723.56;6311620;22;46497;-94
2021/08/08 21:30:14;;;;;;;;;4.50;3.75;;;;;23.65;45.94;100721.75;6322287;22;45304;-88
2021/08/08 21:33:04;;;;;;;;;2.25;2.25;;;;;23.70;46.92;100737.53;6289231;22;45336;-88
2021/08/08 21:39:10;;;;;;;;;3.50;3.00;;;;;23.63;46.64;100730.75;6229568;22;45957;-89
2021/08/08 21:45:22;;;;;;;;;1.25;1.25;;;;;23.54;46.80;100726.66;6340636;22;45253;-87
2021/08/08 21:48:06;;;;;;;;;6.00;3.75;;;;;23.58;46.98;100730.94;6307445;22;45176;-86
2021/08/08 21:51:31;;;;;;;;;2.50;2.50;;;;;23.58;46.65;100738.91;6314111;22;45445;-88
2021/08/08 21:54:22;;;;;;;;;4.00;3.25;;;;;23.59;47.30;100732.69;6322630;22;45105;-89
2021/08/08 21:56:48;;;;;;;;;3.25;2.25;;;;;23.45;46.58;100708.41;6275223;22;45384;-89
2021/08/08 21:59:29;;;;;;;;;3.50;3.50;;;;;23.50;46.90;100724.22;6290290;22;45263;-88
2021/08/08 22:02:00;;;;;;;;;4.75;2.00;;;;;23.47;46.89;100719.91;6291089;22;47011;-87
2021/08/08 22:04:48;;;;;;;;;;;;;;;;;;;;;
2021/08/08 22:07:21;;;;;;;;;3.00;3.00;;;;;23.40;47.43;100721.09;6315103;22;69309;-88
2021/08/08 22:09:47;;;;;;;;;4.25;4.25;;;;;23.46;47.43;100727.97;6262501;22;45727;-87
2021/08/08 22:12:21;;;;;;;;;4.00;4.00;;;;;23.50;47.24;100727.75;6312598;22;45245;-87
2021/08/08 22:14:46;;;;;;;;;8.25;5.50;;;;;23.45;47.17;100716.41;6339888;22;45255;-87
2021/08/08 22:17:11;;;;;;;;;6.00;6.00;;;;;23.47;47.88;100706.56;6313266;22;45383;-88
2021/08/08 22:19:37;;;;;;;;;4.50;4.00;;;;;23.56;47.50;100724.81;6286941;22;45456;-88
2021/08/08 22:22:04;;;;;;;;;4.00;2.75;;;;;23.62;47.38;100729.88;6286911;22;47153;-88
2021/08/08 22:24:35;;;;;;;;;3.00;3.00;;;;;23.59;48.23;100722.03;6261463;22;45416;-88
2021/08/08 22:27:01;;;;;;;;;4.25;3.75;;;;;23.55;47.50;100717.75;6262257;22;45183;-87
2021/08/08 22:29:40;;;;;;;;;3.00;3.00;;;;;23.60;48.37;100721.09;6287131;22;45169;-86
2021/08/08 22:32:21;;;;;;;;;3.00;3.00;;;;;23.72;47.78;100734.78;6265350;22;47924;-88
2021/08/08 22:34:49;;;;;;;;;2.75;2.75;;;;;23.66;47.98;100723.50;6262331;22;45208;-87
2021/08/08 22:37:15;;;;;;;;;3.00;3.00;;;;;23.67;47.83;100724.34;6288427;22;45373;-87
2021/08/08 22:40:01;;;;;;;;;3.00;3.00;;;;;23.66;47.77;100720.81;6341099;22;45327;-88
2021/08/08 22:42:27;;;;;;;;;2.75;2.75;;;;;23.67;48.31;100727.00;6319000;22;45369;-88
2021/08/08 22:45:02;;;;;;;;;6.25;3.50;;;;;23.69;48.23;100722.47;6262481;22;45342;-87
2021/08/08 22:47:33;;;;;;;;;2.25;2.00;;;;;23.81;48.22;100743.25;6293151;22;45287;-86
2021/08/08 22:50:01;;;;;;;;;3.25;2.00;;;;;23.75;48.24;100724.00;6316046;22;45499;-87
2021/08/08 22:52:29;;;;;;;;;3.00;3.00;;;;;23.75;48.25;100732.88;6314617;22;47710;-88
2021/08/08 22:54:55;;;;;;;;;5.00;3.00;;;;;23.76;48.37;100723.06;6287777;22;45562;-88
2021/08/08 22:57:20;;;;;;;;;3.75;3.00;;;;;23.77;48.20;100731.00;6262720;22;45223;-88
2021/08/08 22:59:45;;;;;;;;;3.25;2.75;;;;;23.83;48.07;100745.84;6288737;22;45124;-87
2021/08/08 23:02:14;;;;;;;;;2.50;2.50;;;;;23.81;47.88;100731.72;6316037;22;45342;-88
2021/08/08 23:04:48;;;;;;;;;2.00;2.00;;;;;23.83;47.30;100748.50;6318838;22;46088;-86
2021/08/08 23:07:17;;;;;;;;;5.00;3.25;;;;;23.82;48.38;100744.97;6345552;22;45298;-88
2021/08/08 23:09:45;;;;;;;;;3.50;3.50;;;;;23.74;48.06;100738.28;6293620;22;45386;-89
2021/08/08 23:12:10;;;;;;;;;2.75;2.75;;;;;23.76;48.14;100733.72;6313914;22;47348;-87
2021/08/08 23:14:42;;;;;;;;;2.00;2.00;;;;;23.74;47.91;100748.94;6314906;22;45299;-87
2021/08/08 23:17:10;;;;;;;;;2.25;2.25;;;;;23.68;47.71;100736.75;6314551;22;45271;-87
2021/08/08 23:19:37;;;;;;;;;2.25;2.25;;;;;23.68;47.30;100740.25;6288015;22;45385;-86
2021/08/08 23:22:04;;;;;;;;;4.25;3.50;;;;;23.64;47.72;100733.34;6313684;22;45297;-85
2021/08/08 23:24:29;;;;;;;;;4.00;3.00;;;;;23.62;47.00;100737.00;6287480;22;46450;-86
2021/08/08 23:26:55;;;;;;;;;3.00;2.25;;;;;23.54;46.97;100731.97;6314800;22;45382;-86
2021/08/08 23:29:20;;;;;;;;;3.75;2.25;;;;;23.51;46.96;100731.25;6314173;22;45444;-85
2021/08/08 23:31:48;;;;;;;;;4.00;4.00;;;;;23.52;46.60;100743.66;6314472;22;48217;-85
2021/08/08 23:34:14;;;;;;;;;3.00;3.00;;;;;23.58;47.19;100748.72;6314042;22;45349;-85
2021/08/08 23:36:39;;;;;;;;;3.50;3.50;;;;;23.47;47.02;100737.69;6288161;22;50049;-85
2021/08/08 23:39:05;;;;;;;;;2.75;2.75;;;;;23.44;46.77;100736.00;6314671;22;45133;-85
2021/08/08 23:41:41;;;;;;;;;3.50;3.50;;;;;23.56;46.86;100762.09;6314365;22;47864;-85
2021/08/08 23:44:06;;;;;;;;;4.00;4.00;;;;;23.50;47.24;100743.72;6287058;22;45304;-85
2021/08/08 23:46:35;;;;;;;;;4.00;3.00;;;;;23.47;46.85;100730.56;6287596;22;45192;-86
2021/08/08 23:49:00;;;;;;;;;4.00;4.00;;;;;23.51;46.77;100740.13;6288141;22;45395;-85
2021/08/08 23:51:26;;;;;;;;;3.00;3.00;;;;;23.48;45.91;100732.28;6313786;22;46856;-85
2021/08/08 23:53:51;;;;;;;;;4.25;3.25;;;;;23.39;46.21;100724.69;6340449;22;45272;-85
2021/08/08 23:56:17;;;;;;;;;2.00;2.00;;;;;23.35;45.84;100726.59;6287894;22;45357;-86
2021/08/08 23:58:43;;;;;;;;;4.25;3.00;;;;;23.43;46.75;100744.91;6287920;22;45483;-84
